Station Historical Data
Daily Summary for February 26, 2012 Units:  Both    English   Metric
« Previous Day
Next Day »
Daily Weekly Monthly Yearly Custom
  High: Low: Average:
Temperature: 61.3 °F /  16.3 °C 31.6 °F /  -0.2 °C 46.6 °F /  8.1 °C
Dew Point: 32.3 °F /  0.2 °C 15.8 °F /  -9 °C 24.6 °F /  -4.1 °C
Humidity: 62% 26% 43%
Wind Speed: 14.0mph /  22.5km/h - 4.4mph /  7.1km/h
Wind Gust: 19.0mph /  30.6km/h - -
Wind- - ESE
Pressure: 30.40 in /  1029.3 hPa 30.21 in /  1022.9 hPa -
Precipitation: 0.00 in /  0 mm    
Historical Graphs
 
 
Tabular Data for February 26, 2012
Time Temperature Dew Point Pressure Wind Wind Speed Wind Gust Humidity Rainfall Rate (Hourly) Conditions
00:00 38.3 °F /  3.5 °C 16.1 °F /  -8.8 °C 30.34in /  1027.3hPa NNE 1.0mph /  1.6km/h 2.0mph /  3.2km/h 40% 0.00in /  0mm
00:01 38.3 °F /  3.5 °C 16.1 °F /  -8.8 °C 30.34in /  1027.3hPa NNE 1.0mph /  1.6km/h 2.0mph /  3.2km/h 40% 0.00in /  0mm
00:06 38.1 °F /  3.4 °C 16.5 °F /  -8.6 °C 30.34in /  1027.3hPa NNE 1.0mph /  1.6km/h 2.0mph /  3.2km/h 41% 0.00in /  0mm
00:11 38.1 °F /  3.4 °C 15.9 °F /  -8.9 °C 30.33in /  1027hPa NNE 1.0mph /  1.6km/h 3.0mph /  4.8km/h 40% 0.00in /  0mm
00:16 37.9 °F /  3.3 °C 15.8 °F /  -9 °C 30.33in /  1027hPa NNE 2.0mph /  3.2km/h 2.0mph /  3.2km/h 40% 0.00in /  0mm
00:21 37.7 °F /  3.2 °C 16.1 °F /  -8.8 °C 30.33in /  1027hPa NNE 2.0mph /  3.2km/h 3.0mph /  4.8km/h 41% 0.00in /  0mm
00:27 37.6 °F /  3.1 °C 16.0 °F /  -8.9 °C 30.33in /  1027hPa NE 2.0mph /  3.2km/h 4.0mph /  6.4km/h 41% 0.00in /  0mm
00:32 37.3 °F /  2.9 °C 16.3 °F /  -8.7 °C 30.33in /  1027hPa NNE 4.0mph /  6.4km/h 5.0mph /  8km/h 42% 0.00in /  0mm
00:37 37.1 °F /  2.8 °C 16.7 °F /  -8.5 °C 30.32in /  1026.6hPa NNE 4.0mph /  6.4km/h 5.0mph /  8km/h 43% 0.00in /  0mm
00:42 36.9 °F /  2.7 °C 17.0 °F /  -8.3 °C 30.33in /  1027hPa NE 4.0mph /  6.4km/h 5.0mph /  8km/h 44% 0.00in /  0mm
00:47 36.7 °F /  2.6 °C 17.4 °F /  -8.1 °C 30.32in /  1026.6hPa NNE 3.0mph /  4.8km/h 6.0mph /  9.7km/h 45% 0.00in /  0mm
00:52 36.6 °F /  2.6 °C 17.3 °F /  -8.2 °C 30.32in /  1026.6hPa NNE 3.0mph /  4.8km/h 5.0mph /  8km/h 45% 0.00in /  0mm
00:57 36.3 °F /  2.4 °C 17.5 °F /  -8.1 °C 30.32in /  1026.6hPa NE 3.0mph /  4.8km/h 5.0mph /  8km/h 46% 0.00in /  0mm
01:02 36.4 °F /  2.4 °C 17.6 °F /  -8 °C 30.32in /  1026.6hPa NE 4.0mph /  6.4km/h 5.0mph /  8km/h 46% 0.00in /  0mm
01:07 36.4 °F /  2.4 °C 18.1 °F /  -7.7 °C 30.32in /  1026.6hPa NE 3.0mph /  4.8km/h 7.0mph /  11.3km/h 47% 0.00in /  0mm
01:12 36.5 °F /  2.5 °C 18.2 °F /  -7.7 °C 30.33in /  1027hPa ENE 2.0mph /  3.2km/h 6.0mph /  9.7km/h 47% 0.00in /  0mm
01:17 36.5 °F /  2.5 °C 18.7 °F /  -7.4 °C 30.33in /  1027hPa East 2.0mph /  3.2km/h 4.0mph /  6.4km/h 48% 0.00in /  0mm
01:22 36.5 °F /  2.5 °C 18.7 °F /  -7.4 °C 30.33in /  1027hPa ENE 3.0mph /  4.8km/h 5.0mph /  8km/h 48% 0.00in /  0mm
01:27 36.4 °F /  2.4 °C 19.1 °F /  -7.2 °C 30.33in /  1027hPa ENE 3.0mph /  4.8km/h 4.0mph /  6.4km/h 49% 0.00in /  0mm
01:32 36.4 °F /  2.4 °C 19.1 °F /  -7.2 °C 30.33in /  1027hPa ENE 1.0mph /  1.6km/h 6.0mph /  9.7km/h 49% 0.00in /  0mm
01:37 36.4 °F /  2.4 °C 19.1 °F /  -7.2 °C 30.33in /  1027hPa NE 2.0mph /  3.2km/h 6.0mph /  9.7km/h 49% 0.00in /  0mm
01:42 36.2 °F /  2.3 °C 19.4 °F /  -7 °C 30.33in /  1027hPa NE 2.0mph /  3.2km/h 3.0mph /  4.8km/h 50% 0.00in /  0mm
01:47 36.0 °F /  2.2 °C 19.6 °F /  -6.9 °C 30.33in /  1027hPa East 1.0mph /  1.6km/h 3.0mph /  4.8km/h 51% 0.00in /  0mm
01:52 35.8 °F /  2.1 °C 19.5 °F /  -6.9 °C 30.33in /  1027hPa East 1.0mph /  1.6km/h 3.0mph /  4.8km/h 51% 0.00in /  0mm
01:57 35.7 °F /  2.1 °C 19.4 °F /  -7 °C 30.33in /  1027hPa East 3.0mph /  4.8km/h 5.0mph /  8km/h 51% 0.00in /  0mm
02:02 35.9 °F /  2.2 °C 20.0 °F /  -6.7 °C 30.33in /  1027hPa NE 2.0mph /  3.2km/h 5.0mph /  8km/h 52% 0.00in /  0mm
02:07 35.7 °F /  2.1 °C 19.8 °F /  -6.8 °C 30.33in /  1027hPa ENE 2.0mph /  3.2km/h 4.0mph /  6.4km/h 52% 0.00in /  0mm
02:12 35.7 °F /  2.1 °C 19.8 °F /  -6.8 °C 30.32in /  1026.6hPa NE 3.0mph /  4.8km/h 5.0mph /  8km/h 52% 0.00in /  0mm
02:18 35.9 °F /  2.2 °C 19.5 °F /  -6.9 °C 30.33in /  1027hPa NNE 4.0mph /  6.4km/h 6.0mph /  9.7km/h 51% 0.00in /  0mm
02:23 36.0 °F /  2.2 °C 20.1 °F /  -6.6 °C 30.33in /  1027hPa NE 4.0mph /  6.4km/h 5.0mph /  8km/h 52% 0.00in /  0mm
02:28 35.9 °F /  2.2 °C 20.0 °F /  -6.7 °C 30.33in /  1027hPa ENE 3.0mph /  4.8km/h 4.0mph /  6.4km/h 52% 0.00in /  0mm
02:33 35.9 °F /  2.2 °C 20.0 °F /  -6.7 °C 30.33in /  1027hPa ENE 2.0mph /  3.2km/h 4.0mph /  6.4km/h 52% 0.00in /  0mm
02:38 35.9 °F /  2.2 °C 20.0 °F /  -6.7 °C 30.33in /  1027hPa East 2.0mph /  3.2km/h 4.0mph /  6.4km/h 52% 0.00in /  0mm
02:43 35.7 °F /  2.1 °C 20.3 °F /  -6.5 °C 30.33in /  1027hPa East 1.0mph /  1.6km/h 3.0mph /  4.8km/h 53% 0.00in /  0mm
02:48 35.6 °F /  2 °C 20.2 °F /  -6.6 °C 30.32in /  1026.6hPa NE 2.0mph /  3.2km/h 4.0mph /  6.4km/h 53% 0.00in /  0mm
02:53 35.5 °F /  1.9 °C 20.1 °F /  -6.6 °C 30.33in /  1027hPa NE 2.0mph /  3.2km/h 3.0mph /  4.8km/h 53% 0.00in /  0mm
02:58 35.5 °F /  1.9 °C 20.1 °F /  -6.6 °C 30.33in /  1027hPa ENE 2.0mph /  3.2km/h 3.0mph /  4.8km/h 53% 0.00in /  0mm
03:03 35.3 °F /  1.8 °C 19.9 °F /  -6.7 °C 30.33in /  1027hPa NE 3.0mph /  4.8km/h 3.0mph /  4.8km/h 53% 0.00in /  0mm
03:08 35.2 °F /  1.8 °C 20.2 °F /  -6.6 °C 30.33in /  1027hPa NE 2.0mph /  3.2km/h 4.0mph /  6.4km/h 54% 0.00in /  0mm
03:13 34.9 °F /  1.6 °C 20.4 °F /  -6.4 °C 30.33in /  1027hPa NE 2.0mph /  3.2km/h 4.0mph /  6.4km/h 55% 0.00in /  0mm
03:18 35.0 °F /  1.7 °C 20.0 °F /  -6.7 °C 30.33in /  1027hPa NE 2.0mph /  3.2km/h 3.0mph /  4.8km/h 54% 0.00in /  0mm
03:23 35.1 °F /  1.7 °C 20.1 °F /  -6.6 °C 30.33in /  1027hPa NE 2.0mph /  3.2km/h 3.0mph /  4.8km/h 54% 0.00in /  0mm
03:28 35.1 °F /  1.7 °C 19.7 °F /  -6.8 °C 30.33in /  1027hPa ENE 4.0mph /  6.4km/h 4.0mph /  6.4km/h 53% 0.00in /  0mm
03:33 35.2 °F /  1.8 °C 19.8 °F /  -6.8 °C 30.32in /  1026.6hPa NE 3.0mph /  4.8km/h 5.0mph /  8km/h 53% 0.00in /  0mm
03:38 35.3 °F /  1.8 °C 19.9 °F /  -6.7 °C 30.32in /  1026.6hPa East 1.0mph /  1.6km/h 4.0mph /  6.4km/h 53% 0.00in /  0mm
03:43 35.2 °F /  1.8 °C 19.8 °F /  -6.8 °C 30.33in /  1027hPa Calm   3.0mph /  4.8km/h 53% 0.00in /  0mm
03:48 35.1 °F /  1.7 °C 20.1 °F /  -6.6 °C 30.32in /  1026.6hPa East 1.0mph /  1.6km/h 3.0mph /  4.8km/h 54% 0.00in /  0mm
03:53 34.9 °F /  1.6 °C 20.0 °F /  -6.7 °C 30.32in /  1026.6hPa NE 2.0mph /  3.2km/h 2.0mph /  3.2km/h 54% 0.00in /  0mm
03:58 34.8 °F /  1.6 °C 20.3 °F /  -6.5 °C 30.32in /  1026.6hPa East 4.0mph /  6.4km/h 4.0mph /  6.4km/h 55% 0.00in /  0mm
04:03 34.8 °F /  1.6 °C 20.3 °F /  -6.5 °C 30.32in /  1026.6hPa East 2.0mph /  3.2km/h 3.0mph /  4.8km/h 55% 0.00in /  0mm
04:08 34.7 °F /  1.5 °C 20.2 °F /  -6.6 °C 30.32in /  1026.6hPa Calm   4.0mph /  6.4km/h 55% 0.00in /  0mm
04:13 34.6 °F /  1.4 °C 20.1 °F /  -6.6 °C 30.32in /  1026.6hPa East 1.0mph /  1.6km/h 3.0mph /  4.8km/h 55% 0.00in /  0mm
04:18 34.6 °F /  1.4 °C 20.1 °F /  -6.6 °C 30.32in /  1026.6hPa ENE 1.0mph /  1.6km/h 4.0mph /  6.4km/h 55% 0.00in /  0mm
04:23 34.5 °F /  1.4 °C 20.4 °F /  -6.4 °C 30.32in /  1026.6hPa Calm   3.0mph /  4.8km/h 56% 0.00in /  0mm
04:28 34.4 °F /  1.3 °C 20.3 °F /  -6.5 °C 30.32in /  1026.6hPa East 3.0mph /  4.8km/h 5.0mph /  8km/h 56% 0.00in /  0mm
04:33 34.4 °F /  1.3 °C 20.3 °F /  -6.5 °C 30.32in /  1026.6hPa East 4.0mph /  6.4km/h 4.0mph /  6.4km/h 56% 0.00in /  0mm
04:38 34.2 °F /  1.2 °C 20.6 °F /  -6.3 °C 30.32in /  1026.6hPa ENE 3.0mph /  4.8km/h 4.0mph /  6.4km/h 57% 0.00in /  0mm
04:44 34.1 °F /  1.2 °C 20.5 °F /  -6.4 °C 30.32in /  1026.6hPa NE 1.0mph /  1.6km/h 3.0mph /  4.8km/h 57% 0.00in /  0mm
04:49 34.1 °F /  1.2 °C 20.1 °F /  -6.6 °C 30.32in /  1026.6hPa East 2.0mph /  3.2km/h 5.0mph /  8km/h 56% 0.00in /  0mm
04:54 34.1 °F /  1.2 °C 20.1 °F /  -6.6 °C 30.33in /  1027hPa ENE 1.0mph /  1.6km/h 3.0mph /  4.8km/h 56% 0.00in /  0mm
04:59 34.0 °F /  1.1 °C 20.0 °F /  -6.7 °C 30.32in /  1026.6hPa East 2.0mph /  3.2km/h 3.0mph /  4.8km/h 56% 0.00in /  0mm
05:04 34.0 °F /  1.1 °C 20.0 °F /  -6.7 °C 30.32in /  1026.6hPa ENE 2.0mph /  3.2km/h 3.0mph /  4.8km/h 56% 0.00in /  0mm
05:09 34.1 °F /  1.2 °C 20.1 °F /  -6.6 °C 30.32in /  1026.6hPa East 4.0mph /  6.4km/h 5.0mph /  8km/h 56% 0.00in /  0mm
05:14 34.1 °F /  1.2 °C 20.1 °F /  -6.6 °C 30.32in /  1026.6hPa East 3.0mph /  4.8km/h 4.0mph /  6.4km/h 56% 0.00in /  0mm
05:19 34.0 °F /  1.1 °C 20.0 °F /  -6.7 °C 30.32in /  1026.6hPa East 2.0mph /  3.2km/h 3.0mph /  4.8km/h 56% 0.00in /  0mm
05:24 34.0 °F /  1.1 °C 20.0 °F /  -6.7 °C 30.33in /  1027hPa East 2.0mph /  3.2km/h 3.0mph /  4.8km/h 56% 0.00in /  0mm
05:29 33.7 °F /  0.9 °C 20.1 °F /  -6.6 °C 30.33in /  1027hPa ENE 1.0mph /  1.6km/h 3.0mph /  4.8km/h 57% 0.00in /  0mm
05:34 33.5 °F /  0.8 °C 20.3 °F /  -6.5 °C 30.33in /  1027hPa Calm   1.0mph /  1.6km/h 58% 0.00in /  0mm
05:39 33.2 °F /  0.7 °C 19.6 °F /  -6.9 °C 30.34in /  1027.3hPa Calm     57% 0.00in /  0mm
05:44 33.1 °F /  0.6 °C 19.5 °F /  -6.9 °C 30.35in /  1027.7hPa Calm     57% 0.00in /  0mm
05:49 32.9 °F /  0.5 °C 20.5 °F /  -6.4 °C 30.35in /  1027.7hPa East 1.0mph /  1.6km/h 1.0mph /  1.6km/h 60% 0.00in /  0mm
05:54 32.1 °F /  0.1 °C 20.2 °F /  -6.6 °C 30.35in /  1027.7hPa NNE 1.0mph /  1.6km/h 1.0mph /  1.6km/h 61% 0.00in /  0mm
05:59 31.6 °F /  -0.2 °C 20.1 °F /  -6.6 °C 30.35in /  1027.7hPa Calm   1.0mph /  1.6km/h 62% 0.00in /  0mm
06:04 31.7 °F /  -0.2 °C 19.8 °F /  -6.8 °C 30.35in /  1027.7hPa Calm   1.0mph /  1.6km/h 61% 0.00in /  0mm
06:09 32.0 °F /  0 °C 19.7 °F /  -6.8 °C 30.35in /  1027.7hPa NNE 1.0mph /  1.6km/h 1.0mph /  1.6km/h 60% 0.00in /  0mm
06:14 32.4 °F /  0.2 °C 19.7 °F /  -6.8 °C 30.34in /  1027.3hPa ESE 1.0mph /  1.6km/h 2.0mph /  3.2km/h 59% 0.00in /  0mm
06:19 32.6 °F /  0.3 °C 19.9 °F /  -6.7 °C 30.35in /  1027.7hPa ENE 3.0mph /  4.8km/h 3.0mph /  4.8km/h 59% 0.00in /  0mm
06:24 33.0 °F /  0.6 °C 19.9 °F /  -6.7 °C 30.35in /  1027.7hPa NE 1.0mph /  1.6km/h 2.0mph /  3.2km/h 58% 0.00in /  0mm
06:29 33.2 °F /  0.7 °C 19.6 °F /  -6.9 °C 30.35in /  1027.7hPa Calm   2.0mph /  3.2km/h 57% 0.00in /  0mm
06:35 33.2 °F /  0.7 °C 19.6 °F /  -6.9 °C 30.35in /  1027.7hPa ENE 1.0mph /  1.6km/h 2.0mph /  3.2km/h 57% 0.00in /  0mm
06:40 33.2 °F /  0.7 °C 19.6 °F /  -6.9 °C 30.35in /  1027.7hPa East 2.0mph /  3.2km/h 3.0mph /  4.8km/h 57% 0.00in /  0mm
06:45 33.1 °F /  0.6 °C 19.9 °F /  -6.7 °C 30.35in /  1027.7hPa East 2.0mph /  3.2km/h 2.0mph /  3.2km/h 58% 0.00in /  0mm
06:50 32.9 °F /  0.5 °C 20.2 °F /  -6.6 °C 30.34in /  1027.3hPa East 1.0mph /  1.6km/h 2.0mph /  3.2km/h 59% 0.00in /  0mm
06:55 32.8 °F /  0.4 °C 20.1 °F /  -6.6 °C 30.35in /  1027.7hPa East 1.0mph /  1.6km/h 3.0mph /  4.8km/h 59% 0.00in /  0mm
07:00 32.7 °F /  0.4 °C 20.0 °F /  -6.7 °C 30.34in /  1027.3hPa ENE 2.0mph /  3.2km/h 3.0mph /  4.8km/h 59% 0.00in /  0mm
07:05 32.8 °F /  0.4 °C 20.1 °F /  -6.6 °C 30.34in /  1027.3hPa ENE 3.0mph /  4.8km/h 5.0mph /  8km/h 59% 0.00in /  0mm
07:10 32.9 °F /  0.5 °C 19.8 °F /  -6.8 °C 30.34in /  1027.3hPa East 3.0mph /  4.8km/h 5.0mph /  8km/h 58% 0.00in /  0mm
07:15 32.9 °F /  0.5 °C 20.2 °F /  -6.6 °C 30.34in /  1027.3hPa East 2.0mph /  3.2km/h 3.0mph /  4.8km/h 59% 0.00in /  0mm
07:20 32.7 °F /  0.4 °C 20.0 °F /  -6.7 °C 30.34in /  1027.3hPa East 2.0mph /  3.2km/h 3.0mph /  4.8km/h 59% 0.00in /  0mm
07:25 32.5 °F /  0.3 °C 20.2 °F /  -6.6 °C 30.34in /  1027.3hPa East 1.0mph /  1.6km/h 2.0mph /  3.2km/h 60% 0.00in /  0mm
07:30 32.3 °F /  0.2 °C 20.0 °F /  -6.7 °C 30.35in /  1027.7hPa Calm   2.0mph /  3.2km/h 60% 0.00in /  0mm
07:35 32.1 °F /  0.1 °C 19.8 °F /  -6.8 °C 30.35in /  1027.7hPa East 1.0mph /  1.6km/h 1.0mph /  1.6km/h 60% 0.00in /  0mm
07:40 32.2 °F /  0.1 °C 20.3 °F /  -6.5 °C 30.35in /  1027.7hPa East 2.0mph /  3.2km/h 2.0mph /  3.2km/h 61% 0.00in /  0mm
07:45 32.6 °F /  0.3 °C 20.3 °F /  -6.5 °C 30.35in /  1027.7hPa ESE 1.0mph /  1.6km/h 2.0mph /  3.2km/h 60% 0.00in /  0mm
07:46 32.7 °F /  0.4 °C 20.4 °F /  -6.4 °C 30.35in /  1027.7hPa ESE 2.0mph /  3.2km/h 2.0mph /  3.2km/h 60% 0.00in /  0mm
07:51 32.9 °F /  0.5 °C 20.5 °F /  -6.4 °C 30.36in /  1028hPa East 2.0mph /  3.2km/h 3.0mph /  4.8km/h 60% 0.00in /  0mm
07:56 33.4 °F /  0.8 °C 20.6 °F /  -6.3 °C 30.36in /  1028hPa ESE 1.0mph /  1.6km/h 2.0mph /  3.2km/h 59% 0.00in /  0mm
08:01 33.7 °F /  0.9 °C 20.5 °F /  -6.4 °C 30.36in /  1028hPa ESE 2.0mph /  3.2km/h 3.0mph /  4.8km/h 58% 0.00in /  0mm
08:06 34.3 °F /  1.3 °C 21.1 °F /  -6.1 °C 30.36in /  1028hPa ESE 2.0mph /  3.2km/h 3.0mph /  4.8km/h 58% 0.00in /  0mm
08:11 34.7 °F /  1.5 °C 21.9 °F /  -5.6 °C 30.36in /  1028hPa ESE 2.0mph /  3.2km/h 3.0mph /  4.8km/h 59% 0.00in /  0mm
08:16 35.1 °F /  1.7 °C 22.6 °F /  -5.2 °C 30.37in /  1028.3hPa ESE 3.0mph /  4.8km/h 3.0mph /  4.8km/h 60% 0.00in /  0mm
08:21 35.5 °F /  1.9 °C 22.2 °F /  -5.4 °C 30.37in /  1028.3hPa ESE 4.0mph /  6.4km/h 5.0mph /  8km/h 58% 0.00in /  0mm
08:26 36.0 °F /  2.2 °C 22.3 °F /  -5.4 °C 30.37in /  1028.3hPa SE 6.0mph /  9.7km/h 6.0mph /  9.7km/h 57% 0.00in /  0mm
08:31 36.4 °F /  2.4 °C 22.2 °F /  -5.4 °C 30.37in /  1028.3hPa SE 6.0mph /  9.7km/h 8.0mph /  12.9km/h 56% 0.00in /  0mm
08:36 36.8 °F /  2.7 °C 22.2 °F /  -5.4 °C 30.38in /  1028.7hPa ESE 6.0mph /  9.7km/h 7.0mph /  11.3km/h 55% 0.00in /  0mm
08:41 37.1 °F /  2.8 °C 22.0 °F /  -5.6 °C 30.38in /  1028.7hPa ESE 5.0mph /  8km/h 8.0mph /  12.9km/h 54% 0.00in /  0mm
08:46 37.6 °F /  3.1 °C 22.5 °F /  -5.3 °C 30.39in /  1029hPa ESE 8.0mph /  12.9km/h 9.0mph /  14.5km/h 54% 0.00in /  0mm
08:51 38.1 °F /  3.4 °C 22.5 °F /  -5.3 °C 30.39in /  1029hPa ESE 7.0mph /  11.3km/h 8.0mph /  12.9km/h 53% 0.00in /  0mm
08:56 38.7 °F /  3.7 °C 23.1 °F /  -4.9 °C 30.39in /  1029hPa SE 5.0mph /  8km/h 8.0mph /  12.9km/h 53% 0.00in /  0mm
09:01 39.2 °F /  4 °C 23.1 °F /  -4.9 °C 30.39in /  1029hPa ESE 6.0mph /  9.7km/h 9.0mph /  14.5km/h 52% 0.00in /  0mm
09:06 39.8 °F /  4.3 °C 23.2 °F /  -4.9 °C 30.39in /  1029hPa ESE 7.0mph /  11.3km/h 9.0mph /  14.5km/h 51% 0.00in /  0mm
09:11 40.4 °F /  4.7 °C 24.2 °F /  -4.3 °C 30.39in /  1029hPa ESE 5.0mph /  8km/h 9.0mph /  14.5km/h 52% 0.00in /  0mm
09:16 41.2 °F /  5.1 °C 24.9 °F /  -3.9 °C 30.39in /  1029hPa SE 7.0mph /  11.3km/h 9.0mph /  14.5km/h 52% 0.00in /  0mm
09:21 41.9 °F /  5.5 °C 24.1 °F /  -4.4 °C 30.39in /  1029hPa SE 7.0mph /  11.3km/h 10.0mph /  16.1km/h 49% 0.00in /  0mm
09:26 42.1 °F /  5.6 °C 22.8 °F /  -5.1 °C 30.40in /  1029.3hPa SSE 9.0mph /  14.5km/h 14.0mph /  22.5km/h 46% 0.00in /  0mm
09:31 42.4 °F /  5.8 °C 24.1 °F /  -4.4 °C 30.39in /  1029hPa ESE 7.0mph /  11.3km/h 12.0mph /  19.3km/h 48% 0.00in /  0mm
09:36 42.8 °F /  6 °C 24.0 °F /  -4.4 °C 30.39in /  1029hPa SE 5.0mph /  8km/h 10.0mph /  16.1km/h 47% 0.00in /  0mm
09:41 43.6 °F /  6.4 °C 23.7 °F /  -4.6 °C 30.39in /  1029hPa SSE 5.0mph /  8km/h 9.0mph /  14.5km/h 45% 0.00in /  0mm
09:47 44.0 °F /  6.7 °C 23.5 °F /  -4.7 °C 30.40in /  1029.3hPa East 12.0mph /  19.3km/h 14.0mph /  22.5km/h 44% 0.00in /  0mm
09:52 44.3 °F /  6.8 °C 23.8 °F /  -4.6 °C 30.39in /  1029hPa SE 9.0mph /  14.5km/h 13.0mph /  20.9km/h 44% 0.00in /  0mm
09:57 45.0 °F /  7.2 °C 25.5 °F /  -3.6 °C 30.39in /  1029hPa SE 6.0mph /  9.7km/h 9.0mph /  14.5km/h 46% 0.00in /  0mm
10:02 45.8 °F /  7.7 °C 25.7 °F /  -3.5 °C 30.39in /  1029hPa ESE 8.0mph /  12.9km/h 9.0mph /  14.5km/h 45% 0.00in /  0mm
10:07 46.0 °F /  7.8 °C 24.8 °F /  -4 °C 30.38in /  1028.7hPa SSE 9.0mph /  14.5km/h 11.0mph /  17.7km/h 43% 0.00in /  0mm
10:12 46.4 °F /  8 °C 25.1 °F /  -3.8 °C 30.38in /  1028.7hPa SE 8.0mph /  12.9km/h 13.0mph /  20.9km/h 43% 0.00in /  0mm
10:17 47.0 °F /  8.3 °C 25.1 °F /  -3.8 °C 30.38in /  1028.7hPa SSE 10.0mph /  16.1km/h 10.0mph /  16.1km/h 42% 0.00in /  0mm
10:22 47.0 °F /  8.3 °C 25.1 °F /  -3.8 °C 30.38in /  1028.7hPa SE 9.0mph /  14.5km/h 13.0mph /  20.9km/h 42% 0.00in /  0mm
10:27 47.5 °F /  8.6 °C 25.0 °F /  -3.9 °C 30.38in /  1028.7hPa SE 9.0mph /  14.5km/h 10.0mph /  16.1km/h 41% 0.00in /  0mm
10:32 47.5 °F /  8.6 °C 25.0 °F /  -3.9 °C 30.38in /  1028.7hPa SE 5.0mph /  8km/h 14.0mph /  22.5km/h 41% 0.00in /  0mm
10:37 48.0 °F /  8.9 °C 25.4 °F /  -3.7 °C 30.38in /  1028.7hPa SE 10.0mph /  16.1km/h 10.0mph /  16.1km/h 41% 0.00in /  0mm
10:42 48.5 °F /  9.2 °C 25.3 °F /  -3.7 °C 30.38in /  1028.7hPa SE 7.0mph /  11.3km/h 11.0mph /  17.7km/h 40% 0.00in /  0mm
10:47 49.1 °F /  9.5 °C 24.6 °F /  -4.1 °C 30.38in /  1028.7hPa ESE 12.0mph /  19.3km/h 12.0mph /  19.3km/h 38% 0.00in /  0mm
10:52 49.3 °F /  9.6 °C 25.4 °F /  -3.7 °C 30.38in /  1028.7hPa SE 12.0mph /  19.3km/h 13.0mph /  20.9km/h 39% 0.00in /  0mm
10:57 49.7 °F /  9.8 °C 24.5 °F /  -4.2 °C 30.38in /  1028.7hPa SSE 5.0mph /  8km/h 12.0mph /  19.3km/h 37% 0.00in /  0mm
11:02 50.0 °F /  10 °C 24.8 °F /  -4 °C 30.38in /  1028.7hPa SE 7.0mph /  11.3km/h 10.0mph /  16.1km/h 37% 0.00in /  0mm
11:07 50.4 °F /  10.2 °C 25.1 °F /  -3.8 °C 30.38in /  1028.7hPa SE 9.0mph /  14.5km/h 14.0mph /  22.5km/h 37% 0.00in /  0mm
11:12 51.1 °F /  10.6 °C 26.4 °F /  -3.1 °C 30.37in /  1028.3hPa ESE 8.0mph /  12.9km/h 11.0mph /  17.7km/h 38% 0.00in /  0mm
11:17 51.6 °F /  10.9 °C 25.5 °F /  -3.6 °C 30.37in /  1028.3hPa SE 9.0mph /  14.5km/h 13.0mph /  20.9km/h 36% 0.00in /  0mm
11:22 52.0 °F /  11.1 °C 25.9 °F /  -3.4 °C 30.37in /  1028.3hPa SE 7.0mph /  11.3km/h 13.0mph /  20.9km/h 36% 0.00in /  0mm
11:27 52.4 °F /  11.3 °C 25.6 °F /  -3.6 °C 30.37in /  1028.3hPa SSE 6.0mph /  9.7km/h 12.0mph /  19.3km/h 35% 0.00in /  0mm
11:32 52.9 °F /  11.6 °C 25.3 °F /  -3.7 °C 30.36in /  1028hPa SSE 11.0mph /  17.7km/h 16.0mph /  25.7km/h 34% 0.00in /  0mm
11:37 52.9 °F /  11.6 °C 25.3 °F /  -3.7 °C 30.36in /  1028hPa SSE 10.0mph /  16.1km/h 12.0mph /  19.3km/h 34% 0.00in /  0mm
11:42 53.2 °F /  11.8 °C 24.9 °F /  -3.9 °C 30.36in /  1028hPa SSE 7.0mph /  11.3km/h 14.0mph /  22.5km/h 33% 0.00in /  0mm
11:47 53.5 °F /  11.9 °C 25.8 °F /  -3.4 °C 30.36in /  1028hPa SE 9.0mph /  14.5km/h 11.0mph /  17.7km/h 34% 0.00in /  0mm
11:52 53.7 °F /  12.1 °C 25.3 °F /  -3.7 °C 30.36in /  1028hPa SSW 8.0mph /  12.9km/h 13.0mph /  20.9km/h 33% 0.00in /  0mm
11:58 54.0 °F /  12.2 °C 24.8 °F /  -4 °C 30.35in /  1027.7hPa SE 5.0mph /  8km/h 11.0mph /  17.7km/h 32% 0.00in /  0mm
12:02 54.1 °F /  12.3 °C 25.6 °F /  -3.6 °C 30.35in /  1027.7hPa South 9.0mph /  14.5km/h 15.0mph /  24.1km/h 33% 0.00in /  0mm
12:07 54.1 °F /  12.3 °C 25.6 °F /  -3.6 °C 30.35in /  1027.7hPa South 4.0mph /  6.4km/h 12.0mph /  19.3km/h 33% 0.00in /  0mm
12:12 54.3 °F /  12.4 °C 26.5 °F /  -3.1 °C 30.35in /  1027.7hPa South 9.0mph /  14.5km/h 12.0mph /  19.3km/h 34% 0.00in /  0mm
12:17 54.7 °F /  12.6 °C 28.3 °F /  -2.1 °C 30.34in /  1027.3hPa SSE 8.0mph /  12.9km/h 10.0mph /  16.1km/h 36% 0.00in /  0mm
12:22 54.6 °F /  12.6 °C 28.2 °F /  -2.1 °C 30.34in /  1027.3hPa South 7.0mph /  11.3km/h 13.0mph /  20.9km/h 36% 0.00in /  0mm
12:28 54.8 °F /  12.7 °C 27.0 °F /  -2.8 °C 30.33in /  1027hPa SE 6.0mph /  9.7km/h 15.0mph /  24.1km/h 34% 0.00in /  0mm
12:33 55.1 °F /  12.8 °C 27.3 °F /  -2.6 °C 30.33in /  1027hPa SSE 14.0mph /  22.5km/h 14.0mph /  22.5km/h 34% 0.00in /  0mm
12:38 55.1 °F /  12.8 °C 28.0 °F /  -2.2 °C 30.33in /  1027hPa SSE 10.0mph /  16.1km/h 13.0mph /  20.9km/h 35% 0.00in /  0mm
12:43 55.7 °F /  13.2 °C 29.2 °F /  -1.6 °C 30.33in /  1027hPa SSE 14.0mph /  22.5km/h 14.0mph /  22.5km/h 36% 0.00in /  0mm
12:48 56.0 °F /  13.3 °C 27.3 °F /  -2.6 °C 30.33in /  1027hPa South 11.0mph /  17.7km/h 13.0mph /  20.9km/h 33% 0.00in /  0mm
12:53 55.9 °F /  13.3 °C 27.2 °F /  -2.7 °C 30.33in /  1027hPa SE 10.0mph /  16.1km/h 13.0mph /  20.9km/h 33% 0.00in /  0mm
12:58 56.3 °F /  13.5 °C 28.3 °F /  -2.1 °C 30.33in /  1027hPa ESE 4.0mph /  6.4km/h 13.0mph /  20.9km/h 34% 0.00in /  0mm
13:03 57.0 °F /  13.9 °C 28.2 °F /  -2.1 °C 30.33in /  1027hPa SE 12.0mph /  19.3km/h 15.0mph /  24.1km/h 33% 0.00in /  0mm
13:08 56.5 °F /  13.6 °C 26.2 °F /  -3.2 °C 30.32in /  1026.6hPa SE 8.0mph /  12.9km/h 16.0mph /  25.7km/h 31% 0.00in /  0mm
13:13 56.6 °F /  13.7 °C 26.3 °F /  -3.2 °C 30.32in /  1026.6hPa SW 9.0mph /  14.5km/h 14.0mph /  22.5km/h 31% 0.00in /  0mm
13:18 57.0 °F /  13.9 °C 28.2 °F /  -2.1 °C 30.32in /  1026.6hPa SW 6.0mph /  9.7km/h 13.0mph /  20.9km/h 33% 0.00in /  0mm
13:23 56.7 °F /  13.7 °C 25.6 °F /  -3.6 °C 30.32in /  1026.6hPa South 6.0mph /  9.7km/h 15.0mph /  24.1km/h 30% 0.00in /  0mm
13:28 56.9 °F /  13.8 °C 25.0 °F /  -3.9 °C 30.31in /  1026.3hPa SSW 5.0mph /  8km/h 9.0mph /  14.5km/h 29% 0.00in /  0mm
13:33 57.1 °F /  13.9 °C 26.0 °F /  -3.3 °C 30.31in /  1026.3hPa SSE 6.0mph /  9.7km/h 18.0mph /  29km/h 30% 0.00in /  0mm
13:38 57.1 °F /  13.9 °C 26.8 °F /  -2.9 °C 30.31in /  1026.3hPa SSW 10.0mph /  16.1km/h 19.0mph /  30.6km/h 31% 0.00in /  0mm
13:43 57.2 °F /  14 °C 26.1 °F /  -3.3 °C 30.31in /  1026.3hPa SSE 9.0mph /  14.5km/h 11.0mph /  17.7km/h 30% 0.00in /  0mm
13:48 57.5 °F /  14.2 °C 27.1 °F /  -2.7 °C 30.30in /  1026hPa SSW 7.0mph /  11.3km/h 12.0mph /  19.3km/h 31% 0.00in /  0mm
13:53 57.9 °F /  14.4 °C 27.5 °F /  -2.5 °C 30.30in /  1026hPa South 3.0mph /  4.8km/h 7.0mph /  11.3km/h 31% 0.00in /  0mm
13:58 58.4 °F /  14.7 °C 26.3 °F /  -3.2 °C 30.29in /  1025.6hPa South 4.0mph /  6.4km/h 9.0mph /  14.5km/h 29% 0.00in /  0mm
14:03 58.3 °F /  14.6 °C 27.0 °F /  -2.8 °C 30.29in /  1025.6hPa SSW 7.0mph /  11.3km/h 9.0mph /  14.5km/h 30% 0.00in /  0mm
14:08 58.6 °F /  14.8 °C 25.6 °F /  -3.6 °C 30.29in /  1025.6hPa SSW 5.0mph /  8km/h 12.0mph /  19.3km/h 28% 0.00in /  0mm
14:13 58.4 °F /  14.7 °C 27.1 °F /  -2.7 °C 30.28in /  1025.3hPa SSE 8.0mph /  12.9km/h 15.0mph /  24.1km/h 30% 0.00in /  0mm
14:18 58.8 °F /  14.9 °C 27.5 °F /  -2.5 °C 30.28in /  1025.3hPa South 6.0mph /  9.7km/h 11.0mph /  17.7km/h 30% 0.00in /  0mm
14:23 59.0 °F /  15 °C 26.8 °F /  -2.9 °C 30.28in /  1025.3hPa SSE 7.0mph /  11.3km/h 10.0mph /  16.1km/h 29% 0.00in /  0mm
14:28 59.1 °F /  15.1 °C 26.9 °F /  -2.8 °C 30.28in /  1025.3hPa SSE 9.0mph /  14.5km/h 16.0mph /  25.7km/h 29% 0.00in /  0mm
14:33 59.2 °F /  15.1 °C 26.1 °F /  -3.3 °C 30.27in /  1024.9hPa SW 8.0mph /  12.9km/h 14.0mph /  22.5km/h 28% 0.00in /  0mm
14:38 59.4 °F /  15.2 °C 26.3 °F /  -3.2 °C 30.27in /  1024.9hPa SSE 8.0mph /  12.9km/h 12.0mph /  19.3km/h 28% 0.00in /  0mm
14:43 59.3 °F /  15.2 °C 27.1 °F /  -2.7 °C 30.27in /  1024.9hPa SSE 7.0mph /  11.3km/h 10.0mph /  16.1km/h 29% 0.00in /  0mm
14:48 59.5 °F /  15.3 °C 25.5 °F /  -3.6 °C 30.27in /  1024.9hPa SE 7.0mph /  11.3km/h 14.0mph /  22.5km/h 27% 0.00in /  0mm
14:53 59.6 °F /  15.3 °C 26.5 °F /  -3.1 °C 30.26in /  1024.6hPa South 7.0mph /  11.3km/h 10.0mph /  16.1km/h 28% 0.00in /  0mm
14:58 59.7 °F /  15.4 °C 25.7 °F /  -3.5 °C 30.26in /  1024.6hPa SW 11.0mph /  17.7km/h 15.0mph /  24.1km/h 27% 0.00in /  0mm
15:03 59.9 °F /  15.5 °C 25.9 °F /  -3.4 °C 30.26in /  1024.6hPa South 9.0mph /  14.5km/h 16.0mph /  25.7km/h 27% 0.00in /  0mm
15:08 59.8 °F /  15.4 °C 26.6 °F /  -3 °C 30.26in /  1024.6hPa SSE 6.0mph /  9.7km/h 13.0mph /  20.9km/h 28% 0.00in /  0mm
15:14 60.3 °F /  15.7 °C 27.1 °F /  -2.7 °C 30.26in /  1024.6hPa SE 11.0mph /  17.7km/h 16.0mph /  25.7km/h 28% 0.00in /  0mm
15:19 60.5 °F /  15.8 °C 28.1 °F /  -2.2 °C 30.25in /  1024.3hPa SSE 6.0mph /  9.7km/h 10.0mph /  16.1km/h 29% 0.00in /  0mm
15:24 60.4 °F /  15.8 °C 25.4 °F /  -3.7 °C 30.25in /  1024.3hPa SSW 11.0mph /  17.7km/h 11.0mph /  17.7km/h 26% 0.00in /  0mm
15:29 60.5 °F /  15.8 °C 26.4 °F /  -3.1 °C 30.25in /  1024.3hPa South 5.0mph /  8km/h 13.0mph /  20.9km/h 27% 0.00in /  0mm
15:34 60.4 °F /  15.8 °C 27.2 °F /  -2.7 °C 30.25in /  1024.3hPa South 5.0mph /  8km/h 12.0mph /  19.3km/h 28% 0.00in /  0mm
15:39 60.5 °F /  15.8 °C 27.3 °F /  -2.6 °C 30.25in /  1024.3hPa SSE 7.0mph /  11.3km/h 14.0mph /  22.5km/h 28% 0.00in /  0mm
15:44 60.6 °F /  15.9 °C 27.3 °F /  -2.6 °C 30.25in /  1024.3hPa SSW 6.0mph /  9.7km/h 13.0mph /  20.9km/h 28% 0.00in /  0mm
15:49 60.8 °F /  16 °C 27.5 °F /  -2.5 °C 30.24in /  1023.9hPa SSE 6.0mph /  9.7km/h 10.0mph /  16.1km/h 28% 0.00in /  0mm
15:54 61.0 °F /  16.1 °C 26.8 °F /  -2.9 °C 30.24in /  1023.9hPa SSE 9.0mph /  14.5km/h 13.0mph /  20.9km/h 27% 0.00in /  0mm
15:59 60.8 °F /  16 °C 28.4 °F /  -2 °C 30.24in /  1023.9hPa SSW 9.0mph /  14.5km/h 11.0mph /  17.7km/h 29% 0.00in /  0mm
16:04 60.9 °F /  16.1 °C 27.6 °F /  -2.4 °C 30.24in /  1023.9hPa SSW 6.0mph /  9.7km/h 10.0mph /  16.1km/h 28% 0.00in /  0mm
16:09 61.0 °F /  16.1 °C 27.7 °F /  -2.4 °C 30.24in /  1023.9hPa SSW 7.0mph /  11.3km/h 10.0mph /  16.1km/h 28% 0.00in /  0mm
16:14 61.2 °F /  16.2 °C 27.9 °F /  -2.3 °C 30.24in /  1023.9hPa SSE 9.0mph /  14.5km/h 11.0mph /  17.7km/h 28% 0.00in /  0mm
16:19 60.8 °F /  16 °C 28.4 °F /  -2 °C 30.24in /  1023.9hPa SSE 7.0mph /  11.3km/h 17.0mph /  27.4km/h 29% 0.00in /  0mm
16:24 60.7 °F /  15.9 °C 27.4 °F /  -2.6 °C 30.24in /  1023.9hPa SE 9.0mph /  14.5km/h 15.0mph /  24.1km/h 28% 0.00in /  0mm
16:29 60.3 °F /  15.7 °C 27.1 °F /  -2.7 °C 30.23in /  1023.6hPa SSE 8.0mph /  12.9km/h 9.0mph /  14.5km/h 28% 0.00in /  0mm
16:34 60.7 °F /  15.9 °C 27.4 °F /  -2.6 °C 30.23in /  1023.6hPa South 7.0mph /  11.3km/h 9.0mph /  14.5km/h 28% 0.00in /  0mm
16:40 60.9 °F /  16.1 °C 27.6 °F /  -2.4 °C 30.23in /  1023.6hPa South 5.0mph /  8km/h 9.0mph /  14.5km/h 28% 0.00in /  0mm
16:45 61.2 °F /  16.2 °C 28.7 °F /  -1.8 °C 30.23in /  1023.6hPa SSW 7.0mph /  11.3km/h 8.0mph /  12.9km/h 29% 0.00in /  0mm
16:50 61.3 °F /  16.3 °C 27.9 °F /  -2.3 °C 30.23in /  1023.6hPa South 10.0mph /  16.1km/h 10.0mph /  16.1km/h 28% 0.00in /  0mm
16:55 61.2 °F /  16.2 °C 27.0 °F /  -2.8 °C 30.23in /  1023.6hPa SE 3.0mph /  4.8km/h 8.0mph /  12.9km/h 27% 0.00in /  0mm
17:00 60.8 °F /  16 °C 27.5 °F /  -2.5 °C 30.22in /  1023.2hPa SE 10.0mph /  16.1km/h 14.0mph /  22.5km/h 28% 0.00in /  0mm
17:05 60.4 °F /  15.8 °C 28.0 °F /  -2.2 °C 30.22in /  1023.2hPa SSE 12.0mph /  19.3km/h 12.0mph /  19.3km/h 29% 0.00in /  0mm
17:10 60.1 °F /  15.6 °C 27.8 °F /  -2.3 °C 30.22in /  1023.2hPa SE 6.0mph /  9.7km/h 13.0mph /  20.9km/h 29% 0.00in /  0mm
17:15 60.1 °F /  15.6 °C 27.8 °F /  -2.3 °C 30.22in /  1023.2hPa SE 9.0mph /  14.5km/h 11.0mph /  17.7km/h 29% 0.00in /  0mm
17:20 60.1 °F /  15.6 °C 29.4 °F /  -1.4 °C 30.22in /  1023.2hPa SSE 6.0mph /  9.7km/h 12.0mph /  19.3km/h 31% 0.00in /  0mm
17:25 59.7 °F /  15.4 °C 29.0 °F /  -1.7 °C 30.22in /  1023.2hPa SE 5.0mph /  8km/h 13.0mph /  20.9km/h 31% 0.00in /  0mm
17:30 59.4 °F /  15.2 °C 28.0 °F /  -2.2 °C 30.22in /  1023.2hPa SE 8.0mph /  12.9km/h 11.0mph /  17.7km/h 30% 0.00in /  0mm
17:35 59.1 °F /  15.1 °C 28.5 °F /  -1.9 °C 30.22in /  1023.2hPa ESE 7.0mph /  11.3km/h 11.0mph /  17.7km/h 31% 0.00in /  0mm
17:36 59.0 °F /  15 °C 28.4 °F /  -2 °C 30.22in /  1023.2hPa SSE 8.0mph /  12.9km/h 9.0mph /  14.5km/h 31% 0.00in /  0mm
17:41 58.8 °F /  14.9 °C 28.3 °F /  -2.1 °C 30.22in /  1023.2hPa SE 9.0mph /  14.5km/h 13.0mph /  20.9km/h 31% 0.00in /  0mm
17:46 58.4 °F /  14.7 °C 28.7 °F /  -1.8 °C 30.22in /  1023.2hPa SE 9.0mph /  14.5km/h 9.0mph /  14.5km/h 32% 0.00in /  0mm
17:51 58.1 °F /  14.5 °C 29.9 °F /  -1.2 °C 30.22in /  1023.2hPa SE 5.0mph /  8km/h 7.0mph /  11.3km/h 34% 0.00in /  0mm
17:56 57.8 °F /  14.3 °C 28.9 °F /  -1.7 °C 30.22in /  1023.2hPa SE 4.0mph /  6.4km/h 10.0mph /  16.1km/h 33% 0.00in /  0mm
18:01 57.6 °F /  14.2 °C 29.5 °F /  -1.4 °C 30.22in /  1023.2hPa ESE 5.0mph /  8km/h 5.0mph /  8km/h 34% 0.00in /  0mm
18:06 57.3 °F /  14.1 °C 29.2 °F /  -1.6 °C 30.22in /  1023.2hPa SE 5.0mph /  8km/h 6.0mph /  9.7km/h 34% 0.00in /  0mm
18:11 57.1 °F /  13.9 °C 29.0 °F /  -1.7 °C 30.22in /  1023.2hPa SE 5.0mph /  8km/h 7.0mph /  11.3km/h 34% 0.00in /  0mm
18:16 56.9 °F /  13.8 °C 28.8 °F /  -1.8 °C 30.22in /  1023.2hPa SE 4.0mph /  6.4km/h 6.0mph /  9.7km/h 34% 0.00in /  0mm
18:21 56.4 °F /  13.6 °C 29.1 °F /  -1.6 °C 30.21in /  1022.9hPa ESE 4.0mph /  6.4km/h 4.0mph /  6.4km/h 35% 0.00in /  0mm
18:26 56.0 °F /  13.3 °C 29.4 °F /  -1.4 °C 30.21in /  1022.9hPa SE 3.0mph /  4.8km/h 5.0mph /  8km/h 36% 0.00in /  0mm
18:31 55.5 °F /  13.1 °C 29.7 °F /  -1.3 °C 30.21in /  1022.9hPa SE 4.0mph /  6.4km/h 5.0mph /  8km/h 37% 0.00in /  0mm
18:36 55.2 °F /  12.9 °C 29.4 °F /  -1.4 °C 30.21in /  1022.9hPa ESE 3.0mph /  4.8km/h 5.0mph /  8km/h 37% 0.00in /  0mm
18:41 54.8 °F /  12.7 °C 29.0 °F /  -1.7 °C 30.21in /  1022.9hPa ESE 3.0mph /  4.8km/h 4.0mph /  6.4km/h 37% 0.00in /  0mm
18:46 54.5 °F /  12.5 °C 29.4 °F /  -1.4 °C 30.21in /  1022.9hPa SE 2.0mph /  3.2km/h 4.0mph /  6.4km/h 38% 0.00in /  0mm
18:51 54.0 °F /  12.2 °C 29.0 °F /  -1.7 °C 30.21in /  1022.9hPa SE 3.0mph /  4.8km/h 4.0mph /  6.4km/h 38% 0.00in /  0mm
18:56 54.0 °F /  12.2 °C 28.3 °F /  -2.1 °C 30.21in /  1022.9hPa SE 4.0mph /  6.4km/h 5.0mph /  8km/h 37% 0.00in /  0mm
19:01 53.9 °F /  12.2 °C 28.9 °F /  -1.7 °C 30.21in /  1022.9hPa SE 3.0mph /  4.8km/h 4.0mph /  6.4km/h 38% 0.00in /  0mm
19:06 53.7 °F /  12.1 °C 28.7 °F /  -1.8 °C 30.21in /  1022.9hPa ESE 3.0mph /  4.8km/h 4.0mph /  6.4km/h 38% 0.00in /  0mm
19:11 53.5 °F /  11.9 °C 28.5 °F /  -1.9 °C 30.21in /  1022.9hPa SE 3.0mph /  4.8km/h 4.0mph /  6.4km/h 38% 0.00in /  0mm
19:16 53.5 °F /  11.9 °C 29.2 °F /  -1.6 °C 30.21in /  1022.9hPa SE 3.0mph /  4.8km/h 4.0mph /  6.4km/h 39% 0.00in /  0mm
19:21 53.4 °F /  11.9 °C 28.5 °F /  -1.9 °C 30.22in /  1023.2hPa SE 3.0mph /  4.8km/h 4.0mph /  6.4km/h 38% 0.00in /  0mm
19:26 53.3 °F /  11.8 °C 28.4 °F /  -2 °C 30.22in /  1023.2hPa SE 3.0mph /  4.8km/h 3.0mph /  4.8km/h 38% 0.00in /  0mm
19:32 53.2 °F /  11.8 °C 28.3 °F /  -2.1 °C 30.22in /  1023.2hPa ESE 3.0mph /  4.8km/h 4.0mph /  6.4km/h 38% 0.00in /  0mm
19:37 53.1 °F /  11.7 °C 28.2 °F /  -2.1 °C 30.22in /  1023.2hPa ESE 3.0mph /  4.8km/h 4.0mph /  6.4km/h 38% 0.00in /  0mm
19:42 53.0 °F /  11.7 °C 28.1 °F /  -2.2 °C 30.22in /  1023.2hPa SE 3.0mph /  4.8km/h 4.0mph /  6.4km/h 38% 0.00in /  0mm
19:47 53.1 °F /  11.7 °C 28.2 °F /  -2.1 °C 30.22in /  1023.2hPa ESE 4.0mph /  6.4km/h 5.0mph /  8km/h 38% 0.00in /  0mm
19:52 52.9 °F /  11.6 °C 28.6 °F /  -1.9 °C 30.22in /  1023.2hPa ESE 5.0mph /  8km/h 6.0mph /  9.7km/h 39% 0.00in /  0mm
19:57 52.6 °F /  11.4 °C 29.0 °F /  -1.7 °C 30.22in /  1023.2hPa SE 4.0mph /  6.4km/h 6.0mph /  9.7km/h 40% 0.00in /  0mm
20:02 52.5 °F /  11.4 °C 28.9 °F /  -1.7 °C 30.23in /  1023.6hPa ESE 4.0mph /  6.4km/h 5.0mph /  8km/h 40% 0.00in /  0mm
20:07 52.3 °F /  11.3 °C 29.3 °F /  -1.5 °C 30.23in /  1023.6hPa ESE 4.0mph /  6.4km/h 6.0mph /  9.7km/h 41% 0.00in /  0mm
20:12 52.3 °F /  11.3 °C 28.7 °F /  -1.8 °C 30.22in /  1023.2hPa ESE 4.0mph /  6.4km/h 5.0mph /  8km/h 40% 0.00in /  0mm
20:17 52.2 °F /  11.2 °C 29.2 °F /  -1.6 °C 30.23in /  1023.6hPa SE 3.0mph /  4.8km/h 6.0mph /  9.7km/h 41% 0.00in /  0mm
20:22 52.0 °F /  11.1 °C 29.0 °F /  -1.7 °C 30.23in /  1023.6hPa SE 3.0mph /  4.8km/h 5.0mph /  8km/h 41% 0.00in /  0mm
20:27 52.0 °F /  11.1 °C 29.0 °F /  -1.7 °C 30.23in /  1023.6hPa SE 4.0mph /  6.4km/h 5.0mph /  8km/h 41% 0.00in /  0mm
20:32 52.2 °F /  11.2 °C 28.6 °F /  -1.9 °C 30.23in /  1023.6hPa SE 5.0mph /  8km/h 6.0mph /  9.7km/h 40% 0.00in /  0mm
20:37 52.2 °F /  11.2 °C 29.2 °F /  -1.6 °C 30.23in /  1023.6hPa SE 4.0mph /  6.4km/h 7.0mph /  11.3km/h 41% 0.00in /  0mm
20:42 52.1 °F /  11.2 °C 29.1 °F /  -1.6 °C 30.23in /  1023.6hPa ESE 4.0mph /  6.4km/h 7.0mph /  11.3km/h 41% 0.00in /  0mm
20:47 52.1 °F /  11.2 °C 29.1 °F /  -1.6 °C 30.23in /  1023.6hPa SE 5.0mph /  8km/h 6.0mph /  9.7km/h 41% 0.00in /  0mm
20:52 52.0 °F /  11.1 °C 28.5 °F /  -1.9 °C 30.23in /  1023.6hPa SE 4.0mph /  6.4km/h 6.0mph /  9.7km/h 40% 0.00in /  0mm
20:57 52.0 °F /  11.1 °C 29.0 °F /  -1.7 °C 30.23in /  1023.6hPa SE 4.0mph /  6.4km/h 5.0mph /  8km/h 41% 0.00in /  0mm
21:02 52.1 °F /  11.2 °C 29.1 °F /  -1.6 °C 30.23in /  1023.6hPa ESE 4.0mph /  6.4km/h 7.0mph /  11.3km/h 41% 0.00in /  0mm
21:07 52.1 °F /  11.2 °C 28.5 °F /  -1.9 °C 30.23in /  1023.6hPa ESE 6.0mph /  9.7km/h 6.0mph /  9.7km/h 40% 0.00in /  0mm
21:12 52.0 °F /  11.1 °C 29.0 °F /  -1.7 °C 30.23in /  1023.6hPa SE 3.0mph /  4.8km/h 6.0mph /  9.7km/h 41% 0.00in /  0mm
21:17 51.8 °F /  11 °C 29.5 °F /  -1.4 °C 30.23in /  1023.6hPa ESE 5.0mph /  8km/h 5.0mph /  8km/h 42% 0.00in /  0mm
21:22 51.6 °F /  10.9 °C 28.7 °F /  -1.8 °C 30.23in /  1023.6hPa SE 5.0mph /  8km/h 6.0mph /  9.7km/h 41% 0.00in /  0mm
21:27 51.6 °F /  10.9 °C 29.3 °F /  -1.5 °C 30.24in /  1023.9hPa SE 3.0mph /  4.8km/h 5.0mph /  8km/h 42% 0.00in /  0mm
21:32 51.5 °F /  10.8 °C 28.6 °F /  -1.9 °C 30.25in /  1024.3hPa SSW 1.0mph /  1.6km/h 3.0mph /  4.8km/h 41% 0.00in /  0mm
21:37 51.3 °F /  10.7 °C 29.0 °F /  -1.7 °C 30.25in /  1024.3hPa SSE 1.0mph /  1.6km/h 2.0mph /  3.2km/h 42% 0.00in /  0mm
21:42 50.8 °F /  10.4 °C 29.1 °F /  -1.6 °C 30.25in /  1024.3hPa Calm   1.0mph /  1.6km/h 43% 0.00in /  0mm
21:47 50.4 °F /  10.2 °C 28.8 °F /  -1.8 °C 30.25in /  1024.3hPa Calm   1.0mph /  1.6km/h 43% 0.00in /  0mm
21:52 50.2 °F /  10.1 °C 28.6 °F /  -1.9 °C 30.26in /  1024.6hPa Calm   1.0mph /  1.6km/h 43% 0.00in /  0mm
21:57 49.6 °F /  9.8 °C 29.1 °F /  -1.6 °C 30.26in /  1024.6hPa Calm   1.0mph /  1.6km/h 45% 0.00in /  0mm
22:02 49.2 °F /  9.6 °C 28.8 °F /  -1.8 °C 30.26in /  1024.6hPa Calm     45% 0.00in /  0mm
22:07 49.0 °F /  9.4 °C 28.0 °F /  -2.2 °C 30.26in /  1024.6hPa Calm     44% 0.00in /  0mm
22:12 49.0 °F /  9.4 °C 28.0 °F /  -2.2 °C 30.27in /  1024.9hPa Calm   1.0mph /  1.6km/h 44% 0.00in /  0mm
22:17 49.2 °F /  9.6 °C 28.2 °F /  -2.1 °C 30.27in /  1024.9hPa SSE 1.0mph /  1.6km/h 1.0mph /  1.6km/h 44% 0.00in /  0mm
22:22 49.5 °F /  9.7 °C 28.5 °F /  -1.9 °C 30.27in /  1024.9hPa Calm   1.0mph /  1.6km/h 44% 0.00in /  0mm
22:27 49.5 °F /  9.7 °C 28.0 °F /  -2.2 °C 30.27in /  1024.9hPa Calm     43% 0.00in /  0mm
22:32 49.6 °F /  9.8 °C 28.0 °F /  -2.2 °C 30.27in /  1024.9hPa SSE 1.0mph /  1.6km/h 1.0mph /  1.6km/h 43% 0.00in /  0mm
22:38 49.7 °F /  9.8 °C 28.1 °F /  -2.2 °C 30.27in /  1024.9hPa SSE 2.0mph /  3.2km/h 2.0mph /  3.2km/h 43% 0.00in /  0mm
22:43 49.6 °F /  9.8 °C 28.6 °F /  -1.9 °C 30.28in /  1025.3hPa SSE 2.0mph /  3.2km/h 2.0mph /  3.2km/h 44% 0.00in /  0mm
22:48 49.7 °F /  9.8 °C 28.7 °F /  -1.8 °C 30.28in /  1025.3hPa SE 2.0mph /  3.2km/h 4.0mph /  6.4km/h 44% 0.00in /  0mm
22:53 49.7 °F /  9.8 °C 29.2 °F /  -1.6 °C 30.28in /  1025.3hPa SSE 2.0mph /  3.2km/h 2.0mph /  3.2km/h 45% 0.00in /  0mm
22:58 49.2 °F /  9.6 °C 29.3 °F /  -1.5 °C 30.28in /  1025.3hPa SSE 1.0mph /  1.6km/h 2.0mph /  3.2km/h 46% 0.00in /  0mm
23:03 48.5 °F /  9.2 °C 29.7 °F /  -1.3 °C 30.28in /  1025.3hPa SSE 1.0mph /  1.6km/h 1.0mph /  1.6km/h 48% 0.00in /  0mm
23:08 48.2 °F /  9 °C 29.5 °F /  -1.4 °C 30.28in /  1025.3hPa SSE 1.0mph /  1.6km/h 1.0mph /  1.6km/h 48% 0.00in /  0mm
23:13 48.2 °F /  9 °C 29.5 °F /  -1.4 °C 30.28in /  1025.3hPa SSE 1.0mph /  1.6km/h 1.0mph /  1.6km/h 48% 0.00in /  0mm
23:18 48.2 °F /  9 °C 28.9 °F /  -1.7 °C 30.28in /  1025.3hPa SSE 1.0mph /  1.6km/h 2.0mph /  3.2km/h 47% 0.00in /  0mm
23:23 48.4 °F /  9.1 °C 29.6 °F /  -1.3 °C 30.28in /  1025.3hPa SSE 1.0mph /  1.6km/h 2.0mph /  3.2km/h 48% 0.00in /  0mm
23:28 48.2 °F /  9 °C 30.0 °F /  -1.1 °C 30.28in /  1025.3hPa SSE 4.0mph /  6.4km/h 4.0mph /  6.4km/h 49% 0.00in /  0mm
23:33 48.5 °F /  9.2 °C 30.7 °F /  -0.7 °C 30.28in /  1025.3hPa SSE 2.0mph /  3.2km/h 3.0mph /  4.8km/h 50% 0.00in /  0mm
23:38 48.7 °F /  9.3 °C 31.9 °F /  -0.1 °C 30.28in /  1025.3hPa South 3.0mph /  4.8km/h 4.0mph /  6.4km/h 52% 0.00in /  0mm
23:43 49.0 °F /  9.4 °C 32.2 °F /  0.1 °C 30.28in /  1025.3hPa SSE 2.0mph /  3.2km/h 3.0mph /  4.8km/h 52% 0.00in /  0mm
23:48 49.2 °F /  9.6 °C 32.3 °F /  0.2 °C 30.29in /  1025.6hPa SSE 3.0mph /  4.8km/h 4.0mph /  6.4km/h 52% 0.00in /  0mm
23:53 49.4 °F /  9.7 °C 31.1 °F /  -0.5 °C 30.28in /  1025.3hPa SE 2.0mph /  3.2km/h 4.0mph /  6.4km/h 49% 0.00in /  0mm
23:58 49.8 °F /  9.9 °C 31.9 °F /  -0.1 °C 30.28in /  1025.3hPa SE 2.0mph /  3.2km/h 3.0mph /  4.8km/h 50% 0.00in /  0mm
Compliments of Weather Underground